Time;durP1;ratioP1;P1;durP2;ratioP2;P2;SDS_P1;SDS_P2;PMS_P1;PMS_P2;Temp;Humidity;BMP_temperature;BMP_pressure;BME280_temperature;BME280_humidity;BME280_pressure;Samples;Min_cycle;Max_cycle;Signal;HPM_P1;HPM_P2
2021/08/01 00:00:15;;;;;;;;;;;;;;;21.30;66.16;100790.69;2200651;39;114819;-53
2021/08/01 00:01:47;;;;;;;;;;;;;;;21.32;66.17;100795.19;2192661;39;114764;-53
2021/08/01 00:03:19;;;;;;;;;;;;;;;21.31;66.01;100788.72;2196478;39;114998;-53
2021/08/01 00:04:52;;;;;;;;;;;;;;;21.30;66.04;100787.09;2202696;39;115801;-53
2021/08/01 00:06:24;;;;;;;;;;;;;;;21.32;66.07;100786.75;2193098;39;114811;-53
2021/08/01 00:07:56;;;;;;;;;;;;;;;21.30;65.96;100779.47;2198275;39;115591;-53
2021/08/01 00:09:28;;;;;;;;;;;;;;;21.30;65.93;100775.84;2198472;39;115564;-54
2021/08/01 00:11:00;;;;;;;;;;;;;;;21.31;65.90;100780.28;2192882;39;115876;-53
2021/08/01 00:12:33;;;;;;;;;;;;;;;21.34;65.94;100781.66;2197960;39;115719;-53
2021/08/01 00:14:05;;;;;;;;;;;;;;;21.30;66.00;100782.28;2191622;39;115039;-53
2021/08/01 00:15:37;;;;;;;;;;;;;;;21.32;66.11;100783.94;2196477;39;115646;-54
2021/08/01 00:17:09;;;;;;;;;;;;;;;21.33;66.05;100789.25;2196291;39;116466;-52
2021/08/01 00:18:41;;;;;;;;;;;;;;;21.33;66.12;100789.25;2191038;39;115704;-53
2021/08/01 00:20:13;;;;;;;;;;;;;;;21.33;66.00;100778.00;2192580;39;115514;-53
2021/08/01 00:21:45;;;;;;;;;;;;;;;21.32;65.99;100781.13;2194142;39;115518;-53
2021/08/01 00:23:17;;;;;;;;;;;;;;;21.32;65.95;100790.41;2189607;39;115525;-53
2021/08/01 00:24:49;;;;;;;;;;;;;;;21.32;65.94;100783.94;2195843;39;114586;-53
2021/08/01 00:26:21;;;;;;;;;;;;;;;21.37;66.13;100781.84;2200651;39;115721;-53
2021/08/01 00:27:53;;;;;;;;;;;;;;;21.38;65.95;100785.50;2198552;39;113697;-53
2021/08/01 00:29:25;;;;;;;;;;;;;;;21.36;66.13;100780.19;2197626;39;113693;-54
2021/08/01 00:30:59;;;;;;;;;;;;;;;21.36;65.95;100783.00;2198660;39;113953;-53
2021/08/01 00:32:31;;;;;;;;;;;;;;;21.36;66.10;100788.59;2198774;39;114110;-53
2021/08/01 00:34:04;;;;;;;;;;;;;;;21.35;65.79;100788.94;2191178;39;113700;-53
2021/08/01 00:35:36;;;;;;;;;;;;;;;21.35;66.05;100781.31;2195897;39;113800;-53
2021/08/01 00:37:08;;;;;;;;;;;;;;;21.34;66.02;100784.47;2199023;39;114102;-53
2021/08/01 00:38:40;;;;;;;;;;;;;;;21.34;66.18;100785.31;2198860;39;113680;-54
2021/08/01 00:40:12;;;;;;;;;;;;;;;21.33;66.00;100780.81;2190710;39;115058;-53
2021/08/01 00:41:44;;;;;;;;;;;;;;;21.35;66.05;100770.06;2196749;39;113907;-53
2021/08/01 00:43:16;;;;;;;;;;;;;;;21.33;66.54;100782.81;2197229;39;113797;-53
2021/08/01 00:44:48;;;;;;;;;;;;;;;21.34;66.02;100782.50;2193964;39;113865;-53
2021/08/01 00:46:20;;;;;;;;;;;;;;;21.33;66.08;100778.00;2196133;39;114017;-53
2021/08/01 00:47:52;;;;;;;;;;;;;;;21.33;66.40;100780.81;2198754;39;113730;-53
2021/08/01 00:49:24;;;;;;;;;;;;;;;21.33;66.24;100780.00;2199782;39;113972;-53
2021/08/01 00:50:56;;;;;;;;;;;;;;;21.33;66.12;100786.44;2198916;39;115130;-53
2021/08/01 00:52:28;;;;;;;;;;;;;;;21.34;66.24;100776.03;2199093;39;114903;-53
2021/08/01 00:54:00;;;;;;;;;;;;;;;21.34;66.53;100784.47;2200980;39;114116;-53
2021/08/01 00:55:33;;;;;;;;;;;;;;;21.33;66.50;100783.63;2191166;39;115275;-53
2021/08/01 00:57:05;;;;;;;;;;;;;;;21.33;66.34;100772.38;2195318;39;114834;-54
2021/08/01 00:58:36;;;;;;;;;;;;;;;21.33;66.25;100775.19;2200197;39;114840;-53
2021/08/01 01:00:16;;;;;;;;;;;;;;;21.34;66.62;100778.84;2200687;39;115179;-53
2021/08/01 01:01:52;;;;;;;;;;;;;;;21.34;66.24;100779.69;2196777;39;115089;-53
2021/08/01 01:03:28;;;;;;;;;;;;;;;21.33;66.62;100774.38;2199824;39;115408;-53
2021/08/01 01:05:00;;;;;;;;;;;;;;;21.34;66.40;100781.66;2199835;39;114805;-54
2021/08/01 01:06:41;;;;;;;;;;;;;;;21.34;66.28;100771.25;2199811;39;114744;-53
2021/08/01 01:08:15;;;;;;;;;;;;;;;21.33;66.49;100772.38;2198377;39;113795;-54
2021/08/01 01:09:51;;;;;;;;;;;;;;;21.34;66.76;100776.03;2189950;39;115189;-53
2021/08/01 01:11:27;;;;;;;;;;;;;;;21.34;66.31;100765.63;2201670;39;114978;-54
2021/08/01 01:13:10;;;;;;;;;;;;;;;21.34;66.40;100765.63;2198991;39;115422;-53
2021/08/01 01:14:45;;;;;;;;;;;;;;;21.35;66.35;100766.47;2199529;39;115591;-53
2021/08/01 01:16:17;;;;;;;;;;;;;;;21.36;66.60;100756.84;2198739;39;115579;-53
2021/08/01 01:17:52;;;;;;;;;;;;;;;21.36;66.61;100768.94;2198538;39;115699;-52
2021/08/01 01:19:34;;;;;;;;;;;;;;;21.36;66.61;100766.13;2198421;39;115851;-54
2021/08/01 01:21:15;;;;;;;;;;;;;;;21.36;66.41;100754.03;2198833;39;115479;-54
2021/08/01 01:22:55;;;;;;;;;;;;;;;21.37;66.66;100762.16;2193622;39;115565;-53
2021/08/01 01:24:30;;;;;;;;;;;;;;;21.38;66.60;100749.78;2198339;39;115675;-53
2021/08/01 01:26:03;;;;;;;;;;;;;;;21.37;66.65;100750.94;2197831;39;115525;-53
2021/08/01 01:27:39;;;;;;;;;;;;;;;21.37;66.43;100748.13;2185258;39;115874;-53
2021/08/01 01:29:20;;;;;;;;;;;;;;;21.38;66.63;100749.78;2190018;39;115667;-53
2021/08/01 01:31:01;;;;;;;;;;;;;;;21.37;66.52;100762.16;2188276;39;115523;-53
2021/08/01 01:32:36;;;;;;;;;;;;;;;21.37;66.63;100759.34;2190298;39;115818;-53
2021/08/01 01:34:12;;;;;;;;;;;;;;;21.37;66.73;100745.31;2190589;39;115573;-53
2021/08/01 01:35:48;;;;;;;;;;;;;;;21.37;66.67;100759.34;2191310;39;113997;-53
2021/08/01 01:37:20;;;;;;;;;;;;;;;21.38;66.55;100754.56;2188781;39;113940;-53
2021/08/01 01:38:54;;;;;;;;;;;;;;;21.37;66.57;100753.75;2198155;39;114003;-53
2021/08/01 01:40:26;;;;;;;;;;;;;;;21.38;66.66;100751.75;2200117;39;113756;-53
2021/08/01 01:41:59;;;;;;;;;;;;;;;21.39;66.71;100753.44;2197572;39;113725;-53
2021/08/01 01:43:31;;;;;;;;;;;;;;;21.38;66.75;100746.97;2198158;39;114089;-54
2021/08/01 01:45:03;;;;;;;;;;;;;;;21.38;66.85;100749.78;2197721;39;114344;-54
2021/08/01 01:46:36;;;;;;;;;;;;;;;21.38;66.87;100746.97;2198512;39;113667;-53
2021/08/01 01:48:08;;;;;;;;;;;;;;;21.39;67.00;100745.00;2191585;39;113742;-53
2021/08/01 01:49:41;;;;;;;;;;;;;;;21.39;67.14;100751.44;2184249;39;113819;-53
2021/08/01 01:51:13;;;;;;;;;;;;;;;21.40;66.89;100747.47;2193456;39;113865;-53
2021/08/01 01:52:49;;;;;;;;;;;;;;;21.41;67.00;100751.94;2198687;39;114008;-53
2021/08/01 01:54:21;;;;;;;;;;;;;;;21.40;67.06;100750.28;2198790;39;113664;-53
2021/08/01 01:55:53;;;;;;;;;;;;;;;21.41;67.07;100748.31;2194224;39;113835;-53
2021/08/01 01:57:26;;;;;;;;;;;;;;;21.40;67.26;100744.66;2189615;39;114993;-54
2021/08/01 01:58:58;;;;;;;;;;;;;;;21.40;67.38;100747.47;2198902;39;114812;-53
2021/08/01 02:00:30;;;;;;;;;;;;;;;21.41;67.25;100734.25;2200624;39;115291;-53
2021/08/01 02:02:04;;;;;;;;;;;;;;;21.40;67.38;100733.41;2198514;39;114822;-53
2021/08/01 02:03:36;;;;;;;;;;;;;;;21.41;67.59;100743.50;2193915;39;114838;-53
2021/08/01 02:05:08;;;;;;;;;;;;;;;21.41;67.37;100746.31;2196939;39;114896;-53
2021/08/01 02:06:40;;;;;;;;;;;;;;;21.40;67.48;100741.84;2190782;39;115391;-53
2021/08/01 02:08:12;;;;;;;;;;;;;;;21.41;67.55;100748.31;2197031;39;114845;-53
2021/08/01 02:09:50;;;;;;;;;;;;;;;21.41;67.70;100745.50;2200699;39;114798;-53
2021/08/01 02:11:28;;;;;;;;;;;;;;;21.42;67.74;100733.94;2199041;39;115131;-54
2021/08/01 02:13:00;;;;;;;;;;;;;;;21.43;67.93;100744.03;2196492;39;114754;-52
2021/08/01 02:14:36;;;;;;;;;;;;;;;21.44;67.68;100742.88;2199066;39;114888;-53
2021/08/01 02:16:08;;;;;;;;;;;;;;;21.44;67.79;100748.50;2191865;39;114924;-53
2021/08/01 02:17:44;;;;;;;;;;;;;;;21.46;67.89;100746.19;2199323;39;113815;-53
2021/08/01 02:19:18;;;;;;;;;;;;;;;21.45;67.98;100749.31;2197721;39;115592;-54
2021/08/01 02:20:51;;;;;;;;;;;;;;;21.46;67.57;100745.38;2199175;39;114566;-54
2021/08/01 02:22:24;;;;;;;;;;;;;;;21.46;67.76;100746.19;2191291;39;115896;-53
2021/08/01 02:23:56;;;;;;;;;;;;;;;21.46;68.06;100745.38;2196231;39;114980;-55
2021/08/01 02:25:29;;;;;;;;;;;;;;;21.47;67.80;100747.03;2199123;39;115898;-54
2021/08/01 02:27:02;;;;;;;;;;;;;;;21.46;67.89;100745.38;2192014;39;115592;-53
2021/08/01 02:28:35;;;;;;;;;;;;;;;21.45;67.74;100738.06;2196395;39;115888;-54
2021/08/01 02:30:07;;;;;;;;;;;;;;;21.45;67.94;100743.69;2198618;39;115559;-53
2021/08/01 02:31:39;;;;;;;;;;;;;;;21.46;67.68;100739.75;2198644;39;115950;-53
2021/08/01 02:33:12;;;;;;;;;;;;;;;21.44;67.70;100742.06;2191930;39;115644;-53
2021/08/01 02:34:44;;;;;;;;;;;;;;;21.44;67.95;100742.06;2191969;39;115464;-53
2021/08/01 02:36:17;;;;;;;;;;;;;;;21.45;67.96;100740.88;2188078;39;115833;-53
2021/08/01 02:37:52;;;;;;;;;;;;;;;21.46;67.83;100736.94;2189598;39;115600;-53
2021/08/01 02:39:25;;;;;;;;;;;;;;;21.45;68.02;100732.47;2197171;39;114675;-53
2021/08/01 02:41:01;;;;;;;;;;;;;;;21.45;68.07;100733.28;2200432;39;115876;-53
2021/08/01 02:42:33;;;;;;;;;;;;;;;21.47;67.88;100741.41;2191986;39;116413;-53
2021/08/01 02:44:07;;;;;;;;;;;;;;;21.48;67.92;100734.66;2198084;39;113670;-53
2021/08/01 02:45:41;;;;;;;;;;;;;;;21.47;68.11;100732.97;2199145;39;113617;-53
2021/08/01 02:47:14;;;;;;;;;;;;;;;21.45;67.87;100727.66;2203902;39;113775;-53
2021/08/01 02:48:47;;;;;;;;;;;;;;;21.45;67.96;100733.28;2193941;39;114270;-53
2021/08/01 02:50:20;;;;;;;;;;;;;;;21.45;68.35;100729.66;2196719;39;113661;-53
2021/08/01 02:51:53;;;;;;;;;;;;;;;21.45;68.56;100732.47;2202067;39;113620;-54
2021/08/01 02:53:26;;;;;;;;;;;;;;;21.45;68.32;100733.28;2195192;39;113803;-53
2021/08/01 02:54:58;;;;;;;;;;;;;;;21.45;68.28;100736.09;2198536;39;113818;-53
2021/08/01 02:56:33;;;;;;;;;;;;;;;21.46;68.31;100729.34;2198982;39;113680;-53
2021/08/01 02:58:06;;;;;;;;;;;;;;;21.47;68.48;100736.63;2195280;39;113777;-53
2021/08/01 02:59:38;;;;;;;;;;;;;;;21.47;68.25;100735.78;2197772;39;113930;-53
2021/08/01 03:01:10;;;;;;;;;;;;;;;21.47;67.88;100739.44;2201606;39;113737;-53
2021/08/01 03:02:45;;;;;;;;;;;;;;;21.49;68.16;100725.03;2205250;39;113788;-52
2021/08/01 03:04:17;;;;;;;;;;;;;;;21.47;67.98;100736.63;2199773;39;115412;-56
2021/08/01 03:05:49;;;;;;;;;;;;;;;21.47;68.35;100738.59;2194636;39;114853;-53
2021/08/01 03:07:21;;;;;;;;;;;;;;;21.50;68.25;100737.94;2183977;39;114824;-53
2021/08/01 03:08:53;;;;;;;;;;;;;;;21.48;67.95;100737.47;2196124;39;115294;-53
2021/08/01 03:10:25;;;;;;;;;;;;;;;21.48;68.24;100729.88;2196267;39;114116;-53
2021/08/01 03:12:06;;;;;;;;;;;;;;;21.46;68.19;100734.97;2197285;39;113985;-53
2021/08/01 03:13:38;;;;;;;;;;;;;;;21.45;68.05;100738.91;2200035;39;114984;-54
2021/08/01 03:15:10;;;;;;;;;;;;;;;21.46;68.28;100734.13;2192864;39;114763;-53
2021/08/01 03:16:42;;;;;;;;;;;;;;;21.45;68.29;100732.47;2189185;39;113865;-53
2021/08/01 03:18:14;;;;;;;;;;;;;;;21.46;68.07;100737.78;2191969;39;115319;-53
2021/08/01 03:19:45;;;;;;;;;;;;;;;21.54;67.92;100742.63;2191938;39;113991;-54
2021/08/01 03:21:17;;;;;;;;;;;;;;;21.51;68.07;100745.25;2197099;39;114796;-54
2021/08/01 03:22:49;;;;;;;;;;;;;;;21.51;67.51;100743.25;2194552;39;114726;-54
2021/08/01 03:24:21;;;;;;;;;;;;;;;21.41;66.92;100745.50;2189567;39;115245;-53
2021/08/01 03:25:52;;;;;;;;;;;;;;;21.35;66.19;100736.34;2188341;39;115437;-54
2021/08/01 03:27:24;;;;;;;;;;;;;;;21.29;66.44;100735.66;2189900;39;115516;-54
2021/08/01 03:28:56;;;;;;;;;;;;;;;21.23;66.82;100738.91;2194091;39;115501;-53
2021/08/01 03:30:28;;;;;;;;;;;;;;;21.22;67.12;100740.06;2194866;39;116034;-56
2021/08/01 03:32:00;;;;;;;;;;;;;;;21.25;67.12;100739.44;2190668;39;115567;-54
2021/08/01 03:33:32;;;;;;;;;;;;;;;21.26;67.32;100749.50;2189173;39;115715;-53
2021/08/01 03:35:04;;;;;;;;;;;;;;;21.27;67.30;100734.31;2192064;39;114586;-53
2021/08/01 03:36:36;;;;;;;;;;;;;;;21.26;67.35;100741.06;2193854;39;115519;-53
2021/08/01 03:38:08;;;;;;;;;;;;;;;21.28;67.50;100731.19;2192308;39;115488;-52
2021/08/01 03:39:39;;;;;;;;;;;;;;;21.30;67.54;100739.31;2193238;39;115890;-53
2021/08/01 03:41:11;;;;;;;;;;;;;;;21.29;67.74;100726.41;2190784;39;116081;-53
2021/08/01 03:42:43;;;;;;;;;;;;;;;21.29;67.60;100732.03;2191748;39;115714;-53
2021/08/01 03:44:15;;;;;;;;;;;;;;;21.30;67.50;100737.31;2190764;39;115870;-53
2021/08/01 03:45:47;;;;;;;;;;;;;;;21.29;67.72;100730.06;2196111;39;114672;-53
2021/08/01 03:47:18;;;;;;;;;;;;;;;21.30;67.52;100734.50;2194367;39;113695;-54
2021/08/01 03:48:50;;;;;;;;;;;;;;;21.32;67.41;100739.81;2192524;39;113919;-53
2021/08/01 03:50:22;;;;;;;;;;;;;;;21.34;67.53;100739.50;2196151;39;114380;-53
2021/08/01 03:51:54;;;;;;;;;;;;;;;21.33;67.73;100740.66;2192503;39;113838;-53
2021/08/01 03:53:25;;;;;;;;;;;;;;;21.33;67.69;100732.22;2192801;39;113705;-53
2021/08/01 03:54:57;;;;;;;;;;;;;;;21.34;67.64;100742.31;2192921;39;113917;-53
2021/08/01 03:56:29;;;;;;;;;;;;;;;21.34;67.57;100736.69;2190904;39;113837;-53
2021/08/01 03:58:01;;;;;;;;;;;;;;;21.34;67.79;100736.69;2191290;39;113862;-53
2021/08/01 03:59:33;;;;;;;;;;;;;;;21.34;67.62;100745.97;2192452;39;113816;-53
2021/08/01 04:01:05;;;;;;;;;;;;;;;21.34;67.74;100742.31;2192254;39;113937;-54
2021/08/01 04:02:37;;;;;;;;;;;;;;;21.34;67.56;100745.97;2191841;39;113627;-54
2021/08/01 04:04:10;;;;;;;;;;;;;;;21.35;67.84;100744.78;2191168;39;113841;-53
2021/08/01 04:05:42;;;;;;;;;;;;;;;21.34;67.61;100747.94;2192548;39;113831;-53
2021/08/01 04:07:14;;;;;;;;;;;;;;;21.34;67.77;100753.56;2192146;39;114473;-54
2021/08/01 04:08:46;;;;;;;;;;;;;;;21.34;68.06;100737.53;2201566;39;113612;-53
2021/08/01 04:10:18;;;;;;;;;;;;;;;21.34;67.48;100743.16;2192871;39;115354;-53
2021/08/01 04:11:49;;;;;;;;;;;;;;;21.36;67.58;100737.19;2192592;39;114765;-53
2021/08/01 04:13:21;;;;;;;;;;;;;;;21.35;67.71;100744.78;2192813;39;114727;-53
2021/08/01 04:14:53;;;;;;;;;;;;;;;21.34;67.72;100745.13;2189143;39;114826;-53
2021/08/01 04:16:25;;;;;;;;;;;;;;;21.39;67.78;100750.63;2190856;39;115166;-53
2021/08/01 04:17:56;;;;;;;;;;;;;;;21.40;67.58;100753.09;2195792;39;114855;-53
2021/08/01 04:19:28;;;;;;;;;;;;;;;21.42;67.66;100753.63;2196117;39;117179;-53
2021/08/01 04:21:00;;;;;;;;;;;;;;;21.40;67.41;100750.28;2197671;39;114798;-54
2021/08/01 04:22:32;;;;;;;;;;;;;;;21.39;67.68;100761.88;2195674;39;114762;-53
2021/08/01 04:24:04;;;;;;;;;;;;;;;21.37;67.57;100750.94;2191919;39;114923;-53
2021/08/01 04:25:36;;;;;;;;;;;;;;;21.35;67.72;100758.03;2195844;39;114506;-53
2021/08/01 04:27:08;;;;;;;;;;;;;;;21.35;67.39;100747.59;2195978;39;114786;-54
2021/08/01 04:28:40;;;;;;;;;;;;;;;21.35;67.58;100761.66;2191255;39;115105;-54
2021/08/01 04:30:12;;;;;;;;;;;;;;;21.35;67.48;100760.84;2194874;39;115142;-53
2021/08/01 04:31:44;;;;;;;;;;;;;;;21.32;67.51;100759.47;2196596;39;115742;-54
2021/08/01 04:33:16;;;;;;;;;;;;;;;21.33;67.32;100763.97;2198432;39;116204;-55
2021/08/01 04:34:47;;;;;;;;;;;;;;;21.31;67.34;100763.44;2196534;39;116327;-53
2021/08/01 04:36:19;;;;;;;;;;;;;;;21.32;67.55;100767.06;2190283;39;114916;-54
2021/08/01 04:37:51;;;;;;;;;;;;;;;21.31;67.49;100771.88;2189436;39;116029;-53
2021/08/01 04:39:23;;;;;;;;;;;;;;;21.31;67.56;100763.44;2195790;39;115041;-53
2021/08/01 04:40:54;;;;;;;;;;;;;;;21.31;67.09;100766.25;2198688;39;116180;-53
2021/08/01 04:42:26;;;;;;;;;;;;;;;21.30;67.27;100770.22;2200838;39;116087;-54
2021/08/01 04:43:58;;;;;;;;;;;;;;;21.29;67.22;100774.19;2188178;39;115465;-53
2021/08/01 04:45:30;;;;;;;;;;;;;;;21.29;67.13;100774.19;2185950;39;115033;-53
2021/08/01 04:47:01;;;;;;;;;;;;;;;21.29;67.21;100766.59;2196604;39;115645;-53
2021/08/01 04:48:33;;;;;;;;;;;;;;;21.29;67.23;100768.56;2198738;39;115552;-54
2021/08/01 04:50:05;;;;;;;;;;;;;;;21.28;67.23;100764.09;2191194;39;114610;-53
2021/08/01 04:51:37;;;;;;;;;;;;;;;21.28;66.88;100772.50;2198338;39;115513;-53
2021/08/01 04:53:09;;;;;;;;;;;;;;;21.27;67.35;100771.69;2188547;39;113779;-53
2021/08/01 04:54:41;;;;;;;;;;;;;;;21.25;67.01;100767.53;2192774;39;113742;-53
2021/08/01 04:56:13;;;;;;;;;;;;;;;21.27;67.31;100770.84;2201502;39;114317;-54
2021/08/01 04:57:44;;;;;;;;;;;;;;;21.26;67.31;100764.38;2197542;39;113906;-53
2021/08/01 04:59:17;;;;;;;;;;;;;;;21.26;67.00;100774.78;2194672;39;113870;-53
2021/08/01 05:00:49;;;;;;;;;;;;;;;21.26;67.13;100775.63;2199749;39;113887;-54
2021/08/01 05:02:21;;;;;;;;;;;;;;;21.29;66.69;100779.81;2198136;39;113668;-53
2021/08/01 05:03:54;;;;;;;;;;;;;;;21.30;66.80;100778.66;2201768;39;113735;-53
2021/08/01 05:05:26;;;;;;;;;;;;;;;21.29;66.95;100774.19;2197856;39;113607;-54
2021/08/01 05:06:57;;;;;;;;;;;;;;;21.27;67.00;100773.66;2198750;39;113760;-54
2021/08/01 05:08:29;;;;;;;;;;;;;;;21.26;67.07;100771.97;2197944;39;113717;-53
2021/08/01 05:10:02;;;;;;;;;;;;;;;21.26;66.83;100775.63;2199257;39;113785;-54
2021/08/01 05:11:33;;;;;;;;;;;;;;;21.27;67.01;100774.50;2192752;39;113953;-53
2021/08/01 05:13:06;;;;;;;;;;;;;;;21.26;66.98;100778.44;2194394;39;114254;-54
2021/08/01 05:14:38;;;;;;;;;;;;;;;21.28;67.04;100778.13;2195335;39;114775;-54
2021/08/01 05:16:18;;;;;;;;;;;;;;;21.27;66.87;100782.09;2198237;39;115000;-53
2021/08/01 05:17:50;;;;;;;;;;;;;;;21.27;67.16;100782.09;2191051;39;115038;-54
2021/08/01 05:19:22;;;;;;;;;;;;;;;21.26;67.16;100784.06;2191768;39;114005;-53
2021/08/01 05:20:57;;;;;;;;;;;;;;;21.27;66.98;100785.72;2196741;39;114753;-53
2021/08/01 05:22:29;;;;;;;;;;;;;;;21.28;67.11;100792.19;2191283;39;114718;-53
2021/08/01 05:24:00;;;;;;;;;;;;;;;21.29;67.11;100793.84;2186610;39;114740;-53
2021/08/01 05:25:32;;;;;;;;;;;;;;;21.29;67.13;100791.03;2194510;39;114822;-53
2021/08/01 05:27:04;;;;;;;;;;;;;;;21.29;67.21;100793.84;2186830;39;114162;-53
2021/08/01 05:28:36;;;;;;;;;;;;;;;21.28;66.91;100786.56;2189038;39;114745;-53
2021/08/01 05:30:08;;;;;;;;;;;;;;;21.27;66.90;100785.72;2191419;39;115262;-54
2021/08/01 05:31:40;;;;;;;;;;;;;;;21.28;67.14;100786.56;2192813;39;114272;-53
2021/08/01 05:33:12;;;;;;;;;;;;;;;21.27;67.17;100787.69;2195097;39;114847;-53
2021/08/01 05:34:44;;;;;;;;;;;;;;;21.28;67.11;100790.22;2194287;39;115195;-54
2021/08/01 05:36:15;;;;;;;;;;;;;;;21.27;67.20;100791.34;2191250;39;114584;-53
2021/08/01 05:37:47;;;;;;;;;;;;;;;21.28;67.13;100795.81;2191333;39;115692;-53
2021/08/01 05:39:19;;;;;;;;;;;;;;;21.28;66.93;100803.44;2190405;39;115378;-53
2021/08/01 05:40:51;;;;;;;;;;;;;;;21.29;67.39;100802.28;2191475;39;114598;-54
2021/08/01 05:42:23;;;;;;;;;;;;;;;21.30;67.37;100806.75;2189564;39;115551;-53
2021/08/01 05:43:54;;;;;;;;;;;;;;;21.29;66.98;100807.91;2192182;39;115964;-57
2021/08/01 05:45:27;;;;;;;;;;;;;;;21.29;67.09;100807.91;2194814;39;116201;-53
2021/08/01 05:46:59;;;;;;;;;;;;;;;21.28;66.93;100801.44;2193888;39;114943;-53
2021/08/01 05:48:30;;;;;;;;;;;;;;;21.28;67.25;100807.06;2195537;39;115488;-54
2021/08/01 05:50:02;;;;;;;;;;;;;;;21.28;67.23;100807.06;2189989;39;115467;-53
2021/08/01 05:51:34;;;;;;;;;;;;;;;21.29;67.05;100802.28;2192278;39;115449;-53
2021/08/01 05:53:06;;;;;;;;;;;;;;;21.29;67.22;100805.09;2191850;39;114333;-53
2021/08/01 05:54:38;;;;;;;;;;;;;;;21.30;67.32;100812.38;2190270;39;115672;-53
2021/08/01 05:56:10;;;;;;;;;;;;;;;21.29;67.23;100808.75;2191103;39;115833;-53
2021/08/01 05:57:42;;;;;;;;;;;;;;;21.29;67.19;100805.94;2192738;39;114532;-54
2021/08/01 05:59:13;;;;;;;;;;;;;;;21.28;67.12;100809.03;2191666;39;113933;-53
2021/08/01 06:00:45;;;;;;;;;;;;;;;21.29;67.01;100805.09;2191124;39;113927;-54
2021/08/01 06:02:17;;;;;;;;;;;;;;;21.28;67.24;100804.25;2190408;39;113960;-53
2021/08/01 06:03:49;;;;;;;;;;;;;;;21.27;67.26;100807.38;2192778;39;113817;-54
2021/08/01 06:05:21;;;;;;;;;;;;;;;21.28;67.39;100806.22;2192099;39;113764;-53
2021/08/01 06:06:53;;;;;;;;;;;;;;;21.27;67.37;100815.81;2192274;39;113817;-53
2021/08/01 06:08:25;;;;;;;;;;;;;;;21.30;66.98;100806.75;2191561;39;114107;-53
2021/08/01 06:09:56;;;;;;;;;;;;;;;21.28;67.33;100814.66;2191530;39;113806;-53
2021/08/01 06:11:28;;;;;;;;;;;;;;;21.27;67.33;100810.19;2191570;39;113752;-53
2021/08/01 06:13:00;;;;;;;;;;;;;;;21.29;67.26;100821.94;2191351;39;113783;-53
2021/08/01 06:14:32;;;;;;;;;;;;;;;21.28;67.00;100823.09;2189767;39;113663;-53
2021/08/01 06:16:08;;;;;;;;;;;;;;;21.29;67.06;100817.16;2187153;39;114028;-53
2021/08/01 06:17:40;;;;;;;;;;;;;;;21.27;67.42;100822.25;2194334;39;113795;-53
2021/08/01 06:19:11;;;;;;;;;;;;;;;21.27;67.45;100825.06;2193828;39;114059;-54
2021/08/01 06:20:43;;;;;;;;;;;;;;;21.28;67.19;100823.94;2200216;39;115141;-53
2021/08/01 06:22:15;;;;;;;;;;;;;;;21.28;67.08;100826.75;2201829;39;114852;-53
2021/08/01 06:23:48;;;;;;;;;;;;;;;21.28;67.15;100829.56;2197208;39;114802;-54
2021/08/01 06:25:20;;;;;;;;;;;;;;;21.28;66.88;100823.94;2190097;39;114717;-53
2021/08/01 06:26:51;;;;;;;;;;;;;;;21.28;66.98;100823.94;2194886;39;114140;-54
2021/08/01 06:28:24;;;;;;;;;;;;;;;21.28;67.21;100834.34;2191285;39;114155;-53
2021/08/01 06:29:55;;;;;;;;;;;;;;;21.28;67.22;100825.91;2194614;39;114728;-53
2021/08/01 06:31:31;;;;;;;;;;;;;;;21.29;67.45;100828.41;2193320;39;114846;-53
2021/08/01 06:33:03;;;;;;;;;;;;;;;21.29;67.08;100830.38;2198374;39;115080;-53
2021/08/01 06:34:35;;;;;;;;;;;;;;;21.29;67.21;100833.19;2196183;39;114134;-53
2021/08/01 06:36:08;;;;;;;;;;;;;;;21.29;67.13;100824.75;2195607;39;114731;-53
2021/08/01 06:37:40;;;;;;;;;;;;;;;21.27;67.45;100830.69;2189120;39;114845;-53
2021/08/01 06:39:11;;;;;;;;;;;;;;;21.27;67.05;100833.50;2196303;39;115091;-53
2021/08/01 06:40:43;;;;;;;;;;;;;;;21.28;67.06;100829.56;2201543;39;114905;-54
2021/08/01 06:42:15;;;;;;;;;;;;;;;21.28;67.04;100831.53;2199369;39;115448;-53
2021/08/01 06:43:47;;;;;;;;;;;;;;;21.28;67.19;100831.53;2193436;39;116140;-53
2021/08/01 06:45:22;;;;;;;;;;;;;;;21.28;67.16;100823.94;2196747;39;115911;-53
2021/08/01 06:46:53;;;;;;;;;;;;;;;21.28;67.20;100823.09;2191981;39;115922;-53
2021/08/01 06:48:25;;;;;;;;;;;;;;;21.28;67.08;100825.91;2194368;39;114632;-53
2021/08/01 06:49:57;;;;;;;;;;;;;;;21.26;67.46;100826.22;2198229;39;115284;-53
2021/08/01 06:51:41;;;;;;;;;;;;;;;21.26;67.26;100831.84;2198899;39;115133;-53
2021/08/01 06:53:12;;;;;;;;;;;;;;;21.26;67.21;100831.00;2196951;39;115444;-54
2021/08/01 06:54:44;;;;;;;;;;;;;;;21.24;67.39;100822.91;2201844;39;115605;-53
2021/08/01 06:56:16;;;;;;;;;;;;;;;21.27;67.42;100832.66;2191989;39;115992;-53
2021/08/01 06:57:48;;;;;;;;;;;;;;;21.26;67.32;100829.03;2199166;39;115766;-53
2021/08/01 06:59:19;;;;;;;;;;;;;;;21.28;67.46;100834.34;2201474;39;115488;-53
2021/08/01 07:00:52;;;;;;;;;;;;;;;21.27;67.23;100839.13;2201234;39;114647;-53
2021/08/01 07:02:24;;;;;;;;;;;;;;;21.26;67.08;100825.38;2196382;39;115910;-53
2021/08/01 07:03:56;;;;;;;;;;;;;;;21.27;67.10;100829.84;2196376;39;113828;-53
2021/08/01 07:05:29;;;;;;;;;;;;;;;21.26;67.25;100831.00;2197946;39;113764;-53
2021/08/01 07:07:01;;;;;;;;;;;;;;;21.28;66.96;100831.53;2194035;39;113666;-53
2021/08/01 07:08:33;;;;;;;;;;;;;;;21.27;67.39;100835.47;2199125;39;113755;-53
2021/08/01 07:10:05;;;;;;;;;;;;;;;21.26;67.46;100829.03;2194657;39;114060;-53
2021/08/01 07:11:36;;;;;;;;;;;;;;;21.27;66.98;100839.13;2197596;39;113666;-53
2021/08/01 07:13:11;;;;;;;;;;;;;;;21.27;67.29;100832.66;2195499;39;113717;-53
2021/08/01 07:14:46;;;;;;;;;;;;;;;21.27;67.26;100832.66;2189826;39;114185;-55
2021/08/01 07:16:17;;;;;;;;;;;;;;;21.27;67.21;100832.66;2196198;39;114635;-53
2021/08/01 07:17:53;;;;;;;;;;;;;;;21.27;67.12;100835.47;2199914;39;113975;-54
2021/08/01 07:19:24;;;;;;;;;;;;;;;21.26;67.46;100837.44;2200691;39;113575;-54
2021/08/01 07:20:57;;;;;;;;;;;;;;;21.26;67.15;100840.25;2201299;39;113759;-53
2021/08/01 07:22:29;;;;;;;;;;;;;;;21.27;67.30;100835.47;2190852;39;113832;-54
2021/08/01 07:24:00;;;;;;;;;;;;;;;21.26;67.27;100837.44;2192068;39;113960;-54
2021/08/01 07:25:32;;;;;;;;;;;;;;;21.26;67.14;100831.84;2190460;39;114051;-53
2021/08/01 07:27:04;;;;;;;;;;;;;;;21.26;67.70;100836.63;2196325;39;114768;-53
2021/08/01 07:28:36;;;;;;;;;;;;;;;21.27;67.38;100843.91;2199926;39;113781;-53
2021/08/01 07:30:08;;;;;;;;;;;;;;;21.26;67.34;100839.44;2199053;39;115705;-53
2021/08/01 07:31:40;;;;;;;;;;;;;;;21.26;67.64;100845.03;2198670;39;114763;-53
2021/08/01 07:33:12;;;;;;;;;;;;;;;21.31;67.79;100839.31;2198924;39;114763;-53
2021/08/01 07:34:43;;;;;;;;;;;;;;;21.31;67.37;100842.13;2187671;39;114708;-53
2021/08/01 07:36:15;;;;;;;;;;;;;;;21.30;67.25;100838.47;2193995;39;115530;-53
2021/08/01 07:37:47;;;;;;;;;;;;;;;21.32;67.71;100845.78;2197135;39;113884;-53
2021/08/01 07:39:19;;;;;;;;;;;;;;;21.30;67.11;100841.28;2184657;39;114378;-53
2021/08/01 07:40:51;;;;;;;;;;;;;;;21.32;67.47;100846.59;2198615;39;114866;-53
2021/08/01 07:42:23;;;;;;;;;;;;;;;21.30;67.67;100846.91;2201017;39;114758;-53
2021/08/01 07:43:54;;;;;;;;;;;;;;;21.33;67.55;100848.28;2199892;39;114885;-53
2021/08/01 07:45:31;;;;;;;;;;;;;;;21.34;67.51;100846.28;2201498;39;114854;-53
2021/08/01 07:47:03;;;;;;;;;;;;;;;21.34;67.48;100854.72;2203379;39;114653;-53
2021/08/01 07:48:35;;;;;;;;;;;;;;;21.33;67.83;100853.91;2198774;39;115687;-53
2021/08/01 07:50:07;;;;;;;;;;;;;;;21.34;67.57;100849.09;2198352;39;115496;-53